East Newark, New Jersey
Current Conditions -  °F | °C
As of 5:51 AM on Thursday 23 Oct 2014 (Local Time) from KEWR Reporting Station
Light Rain Light Rain  
Wind Chill: 51°   Ceiling: 2300
Heat Index: 51°   Visibility: 6mi
Dew Point: 49°   Wind: 14mph
Humidity: 92%   Direction: 350°N
Pressure: 29.72"   Gusts: 22mph
Location:  40.7442°N, 74.1517°W
Report Text: KEWR 230951Z 35012G19KT 6SM -RA BR BKN023 OVC034 11/09 A2972 RMK AO2 SLP062 P0008 T01060094 $
Loading
Personal Weather Stations






























Interactive Weather Map
Tropical Storm Tracking
New forecast layout! Learn more

10-Day Weather Forecast

Advertisements
Track Severe Weather on mobile